IRA636 OIII-OISS
Flight info
| Callsign | IRA636 |
|---|---|
| Flight time | 1h 8m |
| Altitude | 33000 |
| Route | ELUSI W13 GOLSO/N0443F350 W13 PEKAM P574 ASNIT |
| Aircraft | B738/M-SDE2E3FGHIRWXY/LB1 |
Departure
| Time | 2026-04-18 14:57 |
|---|---|
| Airport | Mehrabad International Airport (OIII) |
Arrival
| Time | 2026-04-18 16:05 |
|---|---|
| Airport | Shiraz Shahid Dastghaib International Airport (OISS) |
| Time | Latitude | Longitude | Altitude | Speed | Heading |
|---|---|---|---|---|---|
| 2026-04-18 14:42 | 35.68756 | 51.32883 | 3839 ft | 0 kts | 199° |
| 2026-04-18 14:53 | 35.68752 | 51.32882 | 3838 ft | 2 kts | 199° |
| 2026-04-18 14:54 | 35.68730 | 51.32876 | 3836 ft | 5 kts | 179° |
| 2026-04-18 14:54 | 35.68697 | 51.32912 | 3839 ft | 8 kts | 114° |
| 2026-04-18 14:54 | 35.68677 | 51.32987 | 3831 ft | 10 kts | 108° |
| 2026-04-18 14:54 | 35.68652 | 51.33078 | 3831 ft | 12 kts | 108° |
| 2026-04-18 14:55 | 35.68623 | 51.33186 | 3827 ft | 14 kts | 108° |
| 2026-04-18 14:55 | 35.68580 | 51.33304 | 3823 ft | 16 kts | 118° |
| 2026-04-18 14:55 | 35.68520 | 51.33434 | 3815 ft | 19 kts | 133° |
| 2026-04-18 14:55 | 35.68394 | 51.33459 | 3811 ft | 19 kts | 201° |
| 2026-04-18 14:56 | 35.68311 | 51.33421 | 3807 ft | 12 kts | 201° |
| 2026-04-18 14:56 | 35.68235 | 51.33369 | 3805 ft | 13 kts | 242° |
| 2026-04-18 14:56 | 35.68276 | 51.33226 | 3811 ft | 34 kts | 287° |
| 2026-04-18 14:56 | 35.68426 | 51.32705 | 3822 ft | 97 kts | 290° |
| 2026-04-18 14:57 | 35.68720 | 51.31701 | 3861 ft | 150 kts | 289° |
| 2026-04-18 14:57 | 35.69095 | 51.30313 | 3988 ft | 189 kts | 288° |
| 2026-04-18 14:57 | 35.69281 | 51.28724 | 4617 ft | 189 kts | 263° |
| 2026-04-18 14:57 | 35.68852 | 51.27065 | 4656 ft | 218 kts | 238° |
| 2026-04-18 14:58 | 35.67725 | 51.25779 | 4859 ft | 230 kts | 205° |
| 2026-04-18 14:58 | 35.66140 | 51.25438 | 5359 ft | 235 kts | 178° |
| 2026-04-18 14:58 | 35.64437 | 51.25565 | 5625 ft | 258 kts | 175° |
| 2026-04-18 14:58 | 35.62597 | 51.25750 | 6180 ft | 270 kts | 175° |
| 2026-04-18 14:59 | 35.60727 | 51.26009 | 7024 ft | 272 kts | 165° |
| 2026-04-18 14:59 | 35.58970 | 51.26885 | 7870 ft | 273 kts | 155° |
| 2026-04-18 14:59 | 35.57207 | 51.27795 | 8657 ft | 277 kts | 160° |
| 2026-04-18 14:59 | 35.55362 | 51.28534 | 9439 ft | 281 kts | 164° |
| 2026-04-18 15:00 | 35.53460 | 51.29112 | 10211 ft | 284 kts | 168° |
| 2026-04-18 15:00 | 35.51505 | 51.29563 | 10977 ft | 287 kts | 171° |
| 2026-04-18 15:00 | 35.49516 | 51.29918 | 11712 ft | 290 kts | 173° |
| 2026-04-18 15:00 | 35.47497 | 51.30202 | 12457 ft | 294 kts | 174° |
| 2026-04-18 15:01 | 35.45452 | 51.30437 | 13175 ft | 297 kts | 175° |
| 2026-04-18 15:01 | 35.43381 | 51.30637 | 13876 ft | 301 kts | 176° |
| 2026-04-18 15:01 | 35.41279 | 51.30815 | 14566 ft | 304 kts | 176° |
| 2026-04-18 15:01 | 35.39159 | 51.30977 | 15266 ft | 307 kts | 176° |
| 2026-04-18 15:02 | 35.37021 | 51.31129 | 15952 ft | 309 kts | 176° |
| 2026-04-18 15:02 | 35.34861 | 51.31275 | 16606 ft | 312 kts | 177° |
| 2026-04-18 15:02 | 35.32678 | 51.31417 | 17255 ft | 316 kts | 177° |
| 2026-04-18 15:02 | 35.30501 | 51.31556 | 17879 ft | 319 kts | 177° |
| 2026-04-18 15:03 | 35.28276 | 51.31696 | 18497 ft | 322 kts | 177° |
| 2026-04-18 15:03 | 35.26027 | 51.31835 | 19108 ft | 325 kts | 177° |
| 2026-04-18 15:03 | 35.23757 | 51.31976 | 19712 ft | 328 kts | 177° |
| 2026-04-18 15:03 | 35.21466 | 51.32117 | 20287 ft | 331 kts | 177° |
| 2026-04-18 15:04 | 35.19154 | 51.32259 | 20861 ft | 334 kts | 177° |
| 2026-04-18 15:04 | 35.16823 | 51.32401 | 21424 ft | 337 kts | 177° |
| 2026-04-18 15:04 | 35.14472 | 51.32545 | 21963 ft | 340 kts | 177° |
| 2026-04-18 15:04 | 35.12096 | 51.32690 | 22071 ft | 342 kts | 177° |
| 2026-04-18 15:05 | 35.09724 | 51.32835 | 22098 ft | 340 kts | 177° |
| 2026-04-18 15:05 | 35.07357 | 51.32980 | 22099 ft | 341 kts | 177° |
| 2026-04-18 15:05 | 35.04987 | 51.33125 | 22109 ft | 341 kts | 177° |
| 2026-04-18 15:05 | 35.02615 | 51.33269 | 22109 ft | 342 kts | 177° |
| 2026-04-18 15:06 | 35.00235 | 51.33414 | 22111 ft | 342 kts | 177° |
| 2026-04-18 15:06 | 34.97855 | 51.33559 | 22108 ft | 343 kts | 177° |
| 2026-04-18 15:06 | 34.95471 | 51.33704 | 22106 ft | 343 kts | 177° |
| 2026-04-18 15:06 | 34.93088 | 51.33849 | 22100 ft | 343 kts | 177° |
| 2026-04-18 15:07 | 34.90705 | 51.33994 | 22100 ft | 343 kts | 177° |
| 2026-04-18 15:07 | 34.88322 | 51.34139 | 22102 ft | 343 kts | 177° |
| 2026-04-18 15:07 | 34.85942 | 51.34283 | 22101 ft | 342 kts | 177° |
| 2026-04-18 15:07 | 34.83562 | 51.34428 | 22100 ft | 342 kts | 177° |
| 2026-04-18 15:08 | 34.81190 | 51.34572 | 22101 ft | 342 kts | 177° |
| 2026-04-18 15:08 | 34.78816 | 51.34716 | 22101 ft | 341 kts | 177° |
| 2026-04-18 15:08 | 34.76448 | 51.34859 | 22099 ft | 341 kts | 177° |
| 2026-04-18 15:08 | 34.74081 | 51.35003 | 22101 ft | 341 kts | 177° |
| 2026-04-18 15:09 | 34.71712 | 51.35146 | 22101 ft | 340 kts | 177° |
| 2026-04-18 15:09 | 34.69350 | 51.35289 | 22102 ft | 340 kts | 177° |
| 2026-04-18 15:09 | 34.66987 | 51.35432 | 22102 ft | 340 kts | 177° |
| 2026-04-18 15:09 | 34.64624 | 51.35574 | 22102 ft | 340 kts | 177° |
| 2026-04-18 15:10 | 34.62260 | 51.35717 | 22102 ft | 340 kts | 177° |
| 2026-04-18 15:10 | 34.59895 | 51.35860 | 22102 ft | 340 kts | 177° |
| 2026-04-18 15:10 | 34.57530 | 51.36003 | 22102 ft | 340 kts | 177° |
| 2026-04-18 15:10 | 34.55165 | 51.36145 | 22102 ft | 341 kts | 177° |
| 2026-04-18 15:11 | 34.52797 | 51.36181 | 22093 ft | 341 kts | 185° |
| 2026-04-18 15:11 | 34.50493 | 51.35695 | 22099 ft | 340 kts | 194° |
| 2026-04-18 15:11 | 34.48209 | 51.34944 | 22105 ft | 341 kts | 195° |
| 2026-04-18 15:11 | 34.45925 | 51.34166 | 22101 ft | 341 kts | 195° |
| 2026-04-18 15:12 | 34.43645 | 51.33387 | 22102 ft | 341 kts | 195° |
| 2026-04-18 15:12 | 34.41358 | 51.32612 | 22101 ft | 341 kts | 195° |
| 2026-04-18 15:12 | 34.39070 | 51.31844 | 22102 ft | 341 kts | 195° |
| 2026-04-18 15:12 | 34.36777 | 51.31081 | 22102 ft | 342 kts | 195° |
| 2026-04-18 15:13 | 34.34484 | 51.30320 | 22101 ft | 342 kts | 195° |
| 2026-04-18 15:13 | 34.32932 | 51.29807 | 22101 ft | 342 kts | 195° |
| 2026-04-18 15:13 | 34.30642 | 51.29052 | 22101 ft | 342 kts | 195° |
| 2026-04-18 15:13 | 34.28345 | 51.28295 | 22101 ft | 342 kts | 195° |
| 2026-04-18 15:14 | 34.26051 | 51.27540 | 22101 ft | 342 kts | 195° |
| 2026-04-18 15:14 | 34.23756 | 51.26785 | 22101 ft | 342 kts | 195° |
| 2026-04-18 15:14 | 34.21461 | 51.26030 | 22101 ft | 342 kts | 195° |
| 2026-04-18 15:15 | 34.16872 | 51.24523 | 22109 ft | 343 kts | 195° |
| 2026-04-18 15:15 | 34.14547 | 51.23760 | 22356 ft | 350 kts | 195° |
| 2026-04-18 15:15 | 34.12197 | 51.22989 | 22961 ft | 349 kts | 195° |
| 2026-04-18 15:15 | 34.09849 | 51.22218 | 23555 ft | 350 kts | 195° |
| 2026-04-18 15:16 | 34.07456 | 51.21434 | 23717 ft | 365 kts | 195° |
| 2026-04-18 15:16 | 34.04959 | 51.20617 | 23825 ft | 379 kts | 195° |
| 2026-04-18 15:16 | 34.02363 | 51.19767 | 23920 ft | 393 kts | 195° |
| 2026-04-18 15:16 | 33.99680 | 51.18889 | 24015 ft | 406 kts | 195° |
| 2026-04-18 15:17 | 33.96908 | 51.17982 | 24101 ft | 419 kts | 195° |
| 2026-04-18 15:17 | 33.94057 | 51.17050 | 24179 ft | 431 kts | 195° |
| 2026-04-18 15:17 | 33.91121 | 51.16090 | 24241 ft | 442 kts | 195° |
| 2026-04-18 15:17 | 33.88120 | 51.15110 | 24337 ft | 452 kts | 195° |
| 2026-04-18 15:18 | 33.85065 | 51.14113 | 24558 ft | 457 kts | 195° |
| 2026-04-18 15:18 | 33.82002 | 51.13114 | 25073 ft | 456 kts | 195° |
| 2026-04-18 15:18 | 33.78936 | 51.12114 | 25408 ft | 458 kts | 195° |
| 2026-04-18 15:18 | 33.75882 | 51.11120 | 25647 ft | 463 kts | 195° |
| 2026-04-18 15:19 | 33.72764 | 51.10105 | 25889 ft | 466 kts | 195° |
| 2026-04-18 15:19 | 33.69625 | 51.09084 | 26211 ft | 468 kts | 195° |
| 2026-04-18 15:19 | 33.66475 | 51.08060 | 26558 ft | 469 kts | 195° |
| 2026-04-18 15:19 | 33.63326 | 51.07037 | 26983 ft | 468 kts | 195° |
| 2026-04-18 15:20 | 33.60194 | 51.06021 | 27476 ft | 465 kts | 195° |
| 2026-04-18 15:20 | 33.57081 | 51.05011 | 27929 ft | 463 kts | 195° |
| 2026-04-18 15:20 | 33.53967 | 51.04002 | 28326 ft | 463 kts | 195° |
| 2026-04-18 15:20 | 33.50822 | 51.03205 | 28705 ft | 462 kts | 186° |
| 2026-04-18 15:21 | 33.47615 | 51.03139 | 29073 ft | 462 kts | 175° |
| 2026-04-18 15:21 | 33.44442 | 51.03739 | 29460 ft | 461 kts | 165° |
| 2026-04-18 15:21 | 33.41397 | 51.04929 | 29812 ft | 461 kts | 160° |
| 2026-04-18 15:21 | 33.38387 | 51.06223 | 30218 ft | 459 kts | 160° |
| 2026-04-18 15:22 | 33.35384 | 51.07526 | 30642 ft | 457 kts | 160° |
| 2026-04-18 15:22 | 33.32394 | 51.08810 | 30996 ft | 457 kts | 160° |
| 2026-04-18 15:22 | 33.29400 | 51.10078 | 31347 ft | 456 kts | 160° |
| 2026-04-18 15:22 | 33.26411 | 51.11329 | 31725 ft | 454 kts | 161° |
| 2026-04-18 15:23 | 33.23434 | 51.12565 | 32082 ft | 453 kts | 161° |
| 2026-04-18 15:23 | 33.20456 | 51.13796 | 32390 ft | 453 kts | 161° |
| 2026-04-18 15:23 | 33.17478 | 51.15025 | 32666 ft | 453 kts | 161° |
| 2026-04-18 15:23 | 33.14497 | 51.16255 | 32971 ft | 453 kts | 161° |
| 2026-04-18 15:24 | 33.08510 | 51.18723 | 33005 ft | 457 kts | 161° |
| 2026-04-18 15:24 | 33.02552 | 51.21178 | 32996 ft | 450 kts | 161° |
| 2026-04-18 15:25 | 32.96637 | 51.23612 | 33009 ft | 450 kts | 161° |
| 2026-04-18 15:25 | 32.90720 | 51.26044 | 33005 ft | 452 kts | 161° |
| 2026-04-18 15:26 | 32.84751 | 51.28492 | 33005 ft | 453 kts | 161° |
| 2026-04-18 15:26 | 32.78791 | 51.30928 | 33001 ft | 454 kts | 161° |
| 2026-04-18 15:27 | 32.72817 | 51.33367 | 33005 ft | 454 kts | 161° |
| 2026-04-18 15:27 | 32.66841 | 51.35804 | 33002 ft | 454 kts | 161° |
| 2026-04-18 15:28 | 32.60864 | 51.38239 | 33000 ft | 454 kts | 161° |
| 2026-04-18 15:28 | 32.54897 | 51.40666 | 33000 ft | 453 kts | 161° |
| 2026-04-18 15:29 | 32.48949 | 51.43079 | 32999 ft | 451 kts | 161° |
| 2026-04-18 15:29 | 32.43011 | 51.45484 | 32999 ft | 450 kts | 161° |
| 2026-04-18 15:30 | 32.37122 | 51.47868 | 33007 ft | 450 kts | 161° |
| 2026-04-18 15:30 | 32.31203 | 51.50260 | 33000 ft | 450 kts | 161° |
| 2026-04-18 15:31 | 32.25284 | 51.52650 | 33001 ft | 449 kts | 161° |
| 2026-04-18 15:31 | 32.19364 | 51.55036 | 33001 ft | 449 kts | 161° |
| 2026-04-18 15:32 | 32.13442 | 51.57420 | 33001 ft | 450 kts | 161° |
| 2026-04-18 15:32 | 32.07515 | 51.59803 | 33001 ft | 450 kts | 161° |
| 2026-04-18 15:33 | 32.01584 | 51.62184 | 33001 ft | 451 kts | 161° |
| 2026-04-18 15:33 | 31.95636 | 51.64569 | 33003 ft | 452 kts | 161° |
| 2026-04-18 15:34 | 31.89680 | 51.66954 | 32999 ft | 453 kts | 161° |
| 2026-04-18 15:34 | 31.83706 | 51.69343 | 33005 ft | 454 kts | 161° |
| 2026-04-18 15:35 | 31.77718 | 51.71735 | 32999 ft | 455 kts | 161° |
| 2026-04-18 15:35 | 31.71710 | 51.74131 | 33001 ft | 457 kts | 161° |
| 2026-04-18 15:36 | 31.65685 | 51.76530 | 33002 ft | 458 kts | 161° |
| 2026-04-18 15:36 | 31.59643 | 51.78934 | 33001 ft | 459 kts | 161° |
| 2026-04-18 15:37 | 31.53589 | 51.81340 | 33003 ft | 460 kts | 161° |
| 2026-04-18 15:37 | 31.47527 | 51.83747 | 33000 ft | 460 kts | 161° |
| 2026-04-18 15:38 | 31.41465 | 51.86150 | 33005 ft | 460 kts | 161° |
| 2026-04-18 15:38 | 31.35408 | 51.88547 | 33000 ft | 459 kts | 161° |
| 2026-04-18 15:39 | 31.29363 | 51.90938 | 32911 ft | 458 kts | 161° |
| 2026-04-18 15:39 | 31.26342 | 51.92133 | 32645 ft | 459 kts | 161° |
| 2026-04-18 15:39 | 31.23312 | 51.93330 | 32327 ft | 461 kts | 161° |
| 2026-04-18 15:40 | 31.20273 | 51.94530 | 31967 ft | 461 kts | 161° |
| 2026-04-18 15:40 | 31.17277 | 51.95713 | 31601 ft | 461 kts | 161° |
| 2026-04-18 15:40 | 31.14201 | 51.96926 | 31229 ft | 460 kts | 161° |
| 2026-04-18 15:40 | 31.11167 | 51.98122 | 30857 ft | 460 kts | 161° |
| 2026-04-18 15:41 | 31.08135 | 51.99316 | 30488 ft | 459 kts | 161° |
| 2026-04-18 15:41 | 31.05114 | 52.00505 | 30118 ft | 459 kts | 161° |
| 2026-04-18 15:41 | 31.02090 | 52.01695 | 29742 ft | 458 kts | 161° |
| 2026-04-18 15:41 | 30.99069 | 52.02882 | 29369 ft | 458 kts | 161° |
| 2026-04-18 15:42 | 30.96094 | 52.04051 | 29005 ft | 458 kts | 161° |
| 2026-04-18 15:42 | 30.93024 | 52.05256 | 28632 ft | 462 kts | 161° |
| 2026-04-18 15:42 | 30.90008 | 52.06439 | 28275 ft | 466 kts | 161° |
| 2026-04-18 15:42 | 30.86928 | 52.07647 | 27895 ft | 467 kts | 161° |
| 2026-04-18 15:43 | 30.83854 | 52.08851 | 27520 ft | 465 kts | 161° |
| 2026-04-18 15:43 | 30.80750 | 52.10066 | 27139 ft | 464 kts | 161° |
| 2026-04-18 15:43 | 30.77688 | 52.11264 | 26767 ft | 464 kts | 161° |
| 2026-04-18 15:43 | 30.74673 | 52.12443 | 26390 ft | 463 kts | 161° |
| 2026-04-18 15:44 | 30.71621 | 52.13636 | 26030 ft | 463 kts | 161° |
| 2026-04-18 15:44 | 30.68567 | 52.14829 | 25657 ft | 463 kts | 161° |
| 2026-04-18 15:44 | 30.65510 | 52.16022 | 25283 ft | 463 kts | 161° |
| 2026-04-18 15:44 | 30.62458 | 52.17211 | 24906 ft | 462 kts | 161° |
| 2026-04-18 15:45 | 30.59412 | 52.18395 | 24530 ft | 462 kts | 161° |
| 2026-04-18 15:45 | 30.56365 | 52.19578 | 24156 ft | 461 kts | 161° |
| 2026-04-18 15:45 | 30.53329 | 52.20756 | 23780 ft | 456 kts | 161° |
| 2026-04-18 15:45 | 30.50349 | 52.21913 | 23403 ft | 448 kts | 161° |
| 2026-04-18 15:46 | 30.47407 | 52.23054 | 23030 ft | 446 kts | 161° |
| 2026-04-18 15:46 | 30.44450 | 52.24200 | 22663 ft | 449 kts | 161° |
| 2026-04-18 15:46 | 30.41479 | 52.25350 | 22287 ft | 449 kts | 161° |
| 2026-04-18 15:46 | 30.38543 | 52.26487 | 21905 ft | 440 kts | 161° |
| 2026-04-18 15:47 | 30.35667 | 52.27600 | 21526 ft | 432 kts | 161° |
| 2026-04-18 15:47 | 30.32834 | 52.28696 | 21150 ft | 429 kts | 161° |
| 2026-04-18 15:47 | 30.30003 | 52.29790 | 20781 ft | 428 kts | 161° |
| 2026-04-18 15:47 | 30.27178 | 52.30881 | 20409 ft | 427 kts | 161° |
| 2026-04-18 15:48 | 30.24371 | 52.31965 | 20035 ft | 425 kts | 161° |
| 2026-04-18 15:48 | 30.21566 | 52.33047 | 19661 ft | 424 kts | 161° |
| 2026-04-18 15:48 | 30.18775 | 52.34123 | 19287 ft | 422 kts | 161° |
| 2026-04-18 15:48 | 30.15998 | 52.35193 | 18910 ft | 420 kts | 161° |
| 2026-04-18 15:49 | 30.13233 | 52.36258 | 18532 ft | 418 kts | 161° |
| 2026-04-18 15:49 | 30.10486 | 52.37315 | 18163 ft | 416 kts | 161° |
| 2026-04-18 15:49 | 30.07750 | 52.38368 | 17787 ft | 413 kts | 161° |
| 2026-04-18 15:49 | 30.05039 | 52.39411 | 17412 ft | 410 kts | 161° |
| 2026-04-18 15:50 | 30.02340 | 52.40447 | 17038 ft | 407 kts | 161° |
| 2026-04-18 15:50 | 29.99661 | 52.41474 | 16661 ft | 404 kts | 161° |
| 2026-04-18 15:50 | 29.97000 | 52.42490 | 16285 ft | 400 kts | 161° |
| 2026-04-18 15:50 | 29.94386 | 52.43486 | 15905 ft | 393 kts | 161° |
| 2026-04-18 15:51 | 29.91813 | 52.44467 | 15539 ft | 384 kts | 161° |
| 2026-04-18 15:51 | 29.89308 | 52.45422 | 15215 ft | 376 kts | 161° |
| 2026-04-18 15:51 | 29.86849 | 52.46359 | 14885 ft | 368 kts | 161° |
| 2026-04-18 15:51 | 29.84483 | 52.47304 | 14552 ft | 362 kts | 156° |
| 2026-04-18 15:52 | 29.82477 | 52.49024 | 14192 ft | 356 kts | 128° |
| 2026-04-18 15:52 | 29.81442 | 52.51551 | 13871 ft | 349 kts | 100° |
| 2026-04-18 15:52 | 29.81547 | 52.54294 | 13553 ft | 343 kts | 74° |
| 2026-04-18 15:52 | 29.82216 | 52.56906 | 13254 ft | 338 kts | 78° |
| 2026-04-18 15:53 | 29.82480 | 52.59567 | 12921 ft | 333 kts | 90° |
| 2026-04-18 15:53 | 29.82321 | 52.62215 | 12598 ft | 329 kts | 98° |
| 2026-04-18 15:53 | 29.81910 | 52.64758 | 12277 ft | 326 kts | 103° |
| 2026-04-18 15:53 | 29.81344 | 52.67302 | 11940 ft | 320 kts | 106° |
| 2026-04-18 15:54 | 29.80689 | 52.69673 | 11601 ft | 310 kts | 109° |
| 2026-04-18 15:54 | 29.79916 | 52.71945 | 11265 ft | 300 kts | 114° |
| 2026-04-18 15:54 | 29.79012 | 52.74109 | 10932 ft | 292 kts | 118° |
| 2026-04-18 15:54 | 29.78031 | 52.76064 | 10683 ft | 282 kts | 122° |
| 2026-04-18 15:55 | 29.76946 | 52.77903 | 10423 ft | 273 kts | 126° |
| 2026-04-18 15:55 | 29.75795 | 52.79597 | 10159 ft | 265 kts | 130° |
| 2026-04-18 15:55 | 29.74587 | 52.81152 | 9924 ft | 257 kts | 134° |
| 2026-04-18 15:55 | 29.73326 | 52.82577 | 9865 ft | 252 kts | 137° |
| 2026-04-18 15:56 | 29.72016 | 52.83896 | 9850 ft | 250 kts | 141° |
| 2026-04-18 15:56 | 29.70637 | 52.85126 | 9858 ft | 252 kts | 144° |
| 2026-04-18 15:56 | 29.69183 | 52.86265 | 9853 ft | 253 kts | 148° |
| 2026-04-18 15:56 | 29.67670 | 52.87297 | 9846 ft | 253 kts | 151° |
| 2026-04-18 15:57 | 29.66109 | 52.88215 | 9843 ft | 252 kts | 155° |
| 2026-04-18 15:57 | 29.64505 | 52.89018 | 9842 ft | 251 kts | 158° |
| 2026-04-18 15:57 | 29.62866 | 52.89717 | 9843 ft | 251 kts | 161° |
| 2026-04-18 15:57 | 29.61201 | 52.90315 | 9844 ft | 250 kts | 165° |
| 2026-04-18 15:58 | 29.59539 | 52.90723 | 9832 ft | 251 kts | 179° |
| 2026-04-18 15:58 | 29.57928 | 52.90152 | 9835 ft | 242 kts | 219° |
| 2026-04-18 15:58 | 29.57084 | 52.89292 | 9746 ft | 238 kts | 222° |
| 2026-04-18 15:58 | 29.55852 | 52.88065 | 9491 ft | 237 kts | 219° |
| 2026-04-18 15:59 | 29.54572 | 52.86898 | 9235 ft | 232 kts | 217° |
| 2026-04-18 15:59 | 29.53274 | 52.85798 | 8983 ft | 226 kts | 215° |
| 2026-04-18 15:59 | 29.52030 | 52.84799 | 8780 ft | 216 kts | 214° |
| 2026-04-18 15:59 | 29.50817 | 52.83853 | 8542 ft | 206 kts | 214° |
| 2026-04-18 16:00 | 29.49658 | 52.82961 | 8307 ft | 196 kts | 213° |
| 2026-04-18 16:00 | 29.48554 | 52.82117 | 8073 ft | 186 kts | 213° |
| 2026-04-18 16:00 | 29.47500 | 52.81313 | 7822 ft | 179 kts | 213° |
| 2026-04-18 16:00 | 29.46590 | 52.80363 | 7564 ft | 178 kts | 238° |
| 2026-04-18 16:01 | 29.46184 | 52.79065 | 7337 ft | 172 kts | 264° |
| 2026-04-18 16:01 | 29.46392 | 52.77746 | 7341 ft | 168 kts | 291° |
| 2026-04-18 16:01 | 29.46807 | 52.76510 | 7266 ft | 162 kts | 292° |
| 2026-04-18 16:01 | 29.47232 | 52.75354 | 7239 ft | 155 kts | 294° |
| 2026-04-18 16:02 | 29.47666 | 52.74228 | 7288 ft | 155 kts | 294° |
| 2026-04-18 16:02 | 29.48112 | 52.73090 | 7125 ft | 156 kts | 294° |
| 2026-04-18 16:02 | 29.48557 | 52.71959 | 6933 ft | 155 kts | 294° |
| 2026-04-18 16:02 | 29.48999 | 52.70841 | 6725 ft | 154 kts | 294° |
| 2026-04-18 16:03 | 29.49434 | 52.69739 | 6520 ft | 149 kts | 294° |
| 2026-04-18 16:03 | 29.49856 | 52.68669 | 6330 ft | 146 kts | 294° |
| 2026-04-18 16:03 | 29.50277 | 52.67604 | 6140 ft | 147 kts | 294° |
| 2026-04-18 16:03 | 29.50699 | 52.66537 | 5945 ft | 147 kts | 294° |
| 2026-04-18 16:04 | 29.51120 | 52.65471 | 5741 ft | 146 kts | 294° |
| 2026-04-18 16:04 | 29.51539 | 52.64411 | 5556 ft | 145 kts | 294° |
| 2026-04-18 16:04 | 29.51956 | 52.63355 | 5361 ft | 145 kts | 294° |
| 2026-04-18 16:04 | 29.52373 | 52.62300 | 5175 ft | 145 kts | 294° |
| 2026-04-18 16:05 | 29.52789 | 52.61248 | 4980 ft | 144 kts | 294° |
| 2026-04-18 16:05 | 29.53184 | 52.60245 | 4917 ft | 122 kts | 293° |
| 2026-04-18 16:05 | 29.53374 | 52.59749 | 4918 ft | 47 kts | 295° |
| 2026-04-18 16:05 | 29.53506 | 52.59423 | 4917 ft | 43 kts | 295° |
| 2026-04-18 16:06 | 29.53628 | 52.59129 | 4916 ft | 39 kts | 295° |
| 2026-04-18 16:06 | 29.53736 | 52.58865 | 4916 ft | 35 kts | 295° |
| 2026-04-18 16:06 | 29.53865 | 52.58665 | 4919 ft | 31 kts | 354° |
| 2026-04-18 16:06 | 29.54053 | 52.58748 | 4925 ft | 28 kts | 26° |
| 2026-04-18 16:07 | 29.54229 | 52.58837 | 4917 ft | 27 kts | 24° |
| 2026-04-18 16:07 | 29.54380 | 52.58917 | 4925 ft | 15 kts | 24° |
| 2026-04-18 16:07 | 29.54419 | 52.59006 | 4925 ft | 14 kts | 102° |
| 2026-04-18 16:07 | 29.54387 | 52.59109 | 4926 ft | 13 kts | 113° |
| 2026-04-18 16:08 | 29.54351 | 52.59205 | 4926 ft | 13 kts | 114° |
| 2026-04-18 16:08 | 29.54315 | 52.59298 | 4927 ft | 13 kts | 114° |
| 2026-04-18 16:08 | 29.54286 | 52.59392 | 4925 ft | 12 kts | 94° |
| 2026-04-18 16:08 | 29.54292 | 52.59487 | 4925 ft | 6 kts | 81° |